Time;durP1;ratioP1;P1;durP2;ratioP2;P2;SDS_P1;SDS_P2;PMS_P1;PMS_P2;Temp;Humidity;BMP_temperature;BMP_pressure;BME280_temperature;BME280_humidity;BME280_pressure;Samples;Min_cycle;Max_cycle;Signal;HPM_P1;HPM_P2
2023/08/06 00:00:17;;;;;;;3.72;3.38;;;14.60;99.90;;;;;;5016393;28;20084;-61
2023/08/06 00:02:43;;;;;;;10.80;4.57;;;14.50;99.90;;;;;;5018958;28;20140;-58
2023/08/06 00:05:08;;;;;;;9.20;3.78;;;14.40;99.90;;;;;;5018139;28;20030;-60
2023/08/06 00:07:34;;;;;;;4.20;3.80;;;14.40;99.90;;;;;;5020063;28;20026;-62
2023/08/06 00:10:00;;;;;;;12.88;3.60;;;14.40;99.90;;;;;;5019501;28;20049;-59
2023/08/06 00:12:25;;;;;;;5.88;3.53;;;14.30;99.90;;;;;;5020422;28;20700;-61
2023/08/06 00:14:52;;;;;;;4.45;3.92;;;14.30;99.90;;;;;;5020600;28;20061;-59
2023/08/06 00:17:18;;;;;;;5.78;3.45;;;14.20;99.90;;;;;;5019141;28;20391;-60
2023/08/06 00:19:43;;;;;;;4.47;3.47;;;14.20;99.90;;;;;;5015917;28;20034;-61
2023/08/06 00:22:09;;;;;;;5.53;4.47;;;14.20;99.90;;;;;;5014230;28;20116;-59
2023/08/06 00:24:35;;;;;;;5.90;4.07;;;14.20;99.90;;;;;;5016770;28;20034;-59
2023/08/06 00:27:00;;;;;;;7.43;4.57;;;14.20;99.90;;;;;;5018178;28;20029;-59
2023/08/06 00:29:26;;;;;;;6.07;4.07;;;14.10;99.90;;;;;;5019412;28;20104;-59
2023/08/06 00:31:52;;;;;;;12.10;5.05;;;14.10;99.90;;;;;;5015603;28;20033;-59
2023/08/06 00:34:17;;;;;;;10.55;4.57;;;14.10;99.90;;;;;;5016499;28;20040;-61
2023/08/06 00:36:43;;;;;;;18.25;5.68;;;14.10;99.90;;;;;;5015596;28;20076;-60
2023/08/06 00:39:09;;;;;;;9.75;5.32;;;14.10;99.90;;;;;;5016798;28;20038;-58
2023/08/06 00:41:34;;;;;;;11.35;5.32;;;14.00;99.90;;;;;;5016977;28;20424;-62
2023/08/06 00:44:00;;;;;;;12.48;5.70;;;14.00;99.90;;;;;;5013305;28;20049;-59
2023/08/06 00:46:26;;;;;;;14.43;6.20;;;14.00;99.90;;;;;;5017561;28;20030;-59
2023/08/06 00:48:52;;;;;;;8.50;5.15;;;14.00;99.90;;;;;;5016050;28;20084;-60
2023/08/06 00:51:19;;;;;;;5.82;5.18;;;13.90;99.90;;;;;;5018295;28;20030;-61
2023/08/06 00:53:45;;;;;;;5.82;4.60;;;13.90;99.90;;;;;;5014772;28;20436;-60
2023/08/06 00:56:12;;;;;;;12.73;5.88;;;13.90;99.90;;;;;;5019165;28;20033;-61
2023/08/06 00:58:39;;;;;;;5.00;4.60;;;13.90;99.90;;;;;;5016410;28;20585;-60
2023/08/06 01:01:04;;;;;;;18.85;7.20;;;13.90;99.90;;;;;;5016492;28;20045;-60
2023/08/06 01:03:30;;;;;;;9.25;6.97;;;13.90;99.90;;;;;;5016341;28;20038;-58
2023/08/06 01:05:56;;;;;;;14.93;6.90;;;13.90;99.90;;;;;;5016471;28;20033;-60
2023/08/06 01:08:42;;;;;;;13.15;7.07;;;13.90;99.90;;;;;;5018328;28;20068;-59
2023/08/06 01:11:14;;;;;;;13.02;7.22;;;13.90;99.90;;;;;;5017743;28;20444;-59
2023/08/06 01:13:47;;;;;;;8.85;7.13;;;13.80;99.90;;;;;;5019335;28;20056;-57
2023/08/06 01:16:16;;;;;;;25.98;9.13;;;13.90;99.90;;;;;;5018588;28;20083;-59
2023/08/06 01:18:46;;;;;;;9.45;7.30;;;13.80;99.90;;;;;;5017907;28;20050;-61
2023/08/06 01:21:13;;;;;;;17.63;8.35;;;13.90;99.90;;;;;;5024541;28;20133;-59
2023/08/06 01:23:39;;;;;;;14.98;7.13;;;13.90;99.90;;;;;;5003392;28;20042;-59
2023/08/06 01:26:16;;;;;;;11.07;6.93;;;13.80;99.90;;;;;;5021792;28;20324;-57
2023/08/06 01:28:59;;;;;;;12.45;7.47;;;13.80;99.90;;;;;;5021954;28;20152;-59
2023/08/06 01:31:35;;;;;;;10.35;6.57;;;13.80;99.90;;;;;;5020032;28;20029;-58
2023/08/06 01:34:01;;;;;;;19.13;7.78;;;13.80;99.90;;;;;;5021744;28;20521;-61
2023/08/06 01:36:28;;;;;;;8.60;6.63;;;13.80;99.90;;;;;;5023074;28;20025;-61
2023/08/06 01:38:54;;;;;;;16.17;7.22;;;13.90;99.90;;;;;;5020056;28;20105;-61
2023/08/06 01:41:20;;;;;;;22.08;7.93;;;13.90;99.90;;;;;;5018205;28;20025;-59
2023/08/06 01:43:45;;;;;;;11.30;7.60;;;13.90;99.90;;;;;;5020661;28;20034;-61
2023/08/06 01:46:11;;;;;;;10.10;7.88;;;14.00;99.90;;;;;;5021120;28;20104;-59
2023/08/06 01:48:36;;;;;;;18.73;8.60;;;14.00;99.90;;;;;;5019663;28;20037;-58
2023/08/06 01:51:08;;;;;;;12.60;7.85;;;14.00;99.90;;;;;;5013777;28;20914;-59
2023/08/06 01:53:33;;;;;;;;;;;14.00;99.90;;;;;;5019489;28;20138;-61
2023/08/06 01:55:59;;;;;;;16.30;8.07;;;14.00;99.90;;;;;;5020364;28;20352;-61
2023/08/06 01:58:24;;;;;;;12.82;6.68;;;14.10;99.90;;;;;;5019046;28;20037;-60
2023/08/06 02:00:50;;;;;;;10.98;7.63;;;14.10;99.90;;;;;;5020489;28;20569;-62
2023/08/06 02:03:16;;;;;;;12.77;8.32;;;14.20;99.90;;;;;;5024403;28;20042;-60
2023/08/06 02:05:41;;;;;;;6.97;6.05;;;14.20;99.90;;;;;;5020251;28;20768;-58
2023/08/06 02:08:07;;;;;;;9.63;6.82;;;14.30;99.90;;;;;;5006240;28;20021;-60
2023/08/06 02:10:33;;;;;;;15.90;6.80;;;14.30;99.90;;;;;;5022603;28;20120;-60
2023/08/06 02:12:59;;;;;;;10.70;6.80;;;14.30;99.90;;;;;;5020893;28;20026;-60
2023/08/06 02:15:24;;;;;;;7.47;6.05;;;14.30;99.90;;;;;;5021062;28;20022;-60
2023/08/06 02:17:50;;;;;;;7.28;6.57;;;14.30;99.90;;;;;;5017947;28;20379;-61
2023/08/06 02:20:15;;;;;;;10.07;6.25;;;14.30;99.90;;;;;;5021726;28;20062;-58
2023/08/06 02:22:41;;;;;;;10.57;5.95;;;14.30;99.90;;;;;;5015184;28;20034;-61
2023/08/06 02:25:07;;;;;;;16.55;6.30;;;14.30;99.90;;;;;;5018650;28;20034;-60
2023/08/06 02:27:32;;;;;;;11.05;5.85;;;14.30;99.90;;;;;;5019981;28;20033;-58
2023/08/06 02:29:58;;;;;;;11.90;6.18;;;14.30;99.90;;;;;;5019296;28;20033;-60
2023/08/06 02:32:24;;;;;;;11.02;6.65;;;14.30;99.90;;;;;;5020833;28;20095;-59
2023/08/06 02:34:49;;;;;;;12.43;5.63;;;14.30;99.90;;;;;;5018623;28;20029;-60
2023/08/06 02:37:15;;;;;;;16.55;6.85;;;14.30;99.90;;;;;;5015709;28;20034;-61
2023/08/06 02:39:41;;;;;;;9.23;6.20;;;14.30;99.90;;;;;;5017683;28;20034;-60
2023/08/06 02:42:07;;;;;;;9.35;6.55;;;14.30;99.90;;;;;;5012249;28;20096;-61
2023/08/06 02:44:33;;;;;;;8.02;5.78;;;14.30;99.90;;;;;;5021807;28;20037;-59
2023/08/06 02:47:00;;;;;;;6.82;4.68;;;14.20;99.90;;;;;;5020984;28;20030;-60
2023/08/06 02:49:26;;;;;;;9.98;5.95;;;14.20;99.90;;;;;;5020056;28;20032;-61
2023/08/06 02:51:51;;;;;;;13.32;6.25;;;14.20;99.90;;;;;;5021145;28;20453;-61
2023/08/06 02:54:18;;;;;;;14.32;6.30;;;14.20;99.90;;;;;;5016433;28;20037;-60
2023/08/06 02:56:45;;;;;;;12.65;6.30;;;14.20;99.90;;;;;;5014755;28;20052;-59
2023/08/06 02:59:11;;;;;;;16.38;6.57;;;14.20;99.90;;;;;;5018342;28;20187;-59
2023/08/06 03:01:37;;;;;;;17.63;6.55;;;14.20;99.90;;;;;;5017413;28;20085;-59
2023/08/06 03:04:04;;;;;;;8.23;6.25;;;14.20;99.90;;;;;;5018089;28;20453;-58
2023/08/06 03:06:29;;;;;;;6.28;5.72;;;14.20;99.90;;;;;;5021013;28;20030;-60
2023/08/06 03:08:55;;;;;;;18.17;6.40;;;14.20;99.90;;;;;;5018958;28;20238;-60
2023/08/06 03:11:21;;;;;;;20.77;6.65;;;14.20;99.90;;;;;;5018804;28;20022;-60
2023/08/06 03:13:49;;;;;;;17.20;7.18;;;14.20;99.90;;;;;;5017888;28;20041;-60
2023/08/06 03:16:15;;;;;;;15.60;6.30;;;14.20;99.90;;;;;;5019180;28;20053;-58
2023/08/06 03:18:40;;;;;;;20.77;6.43;;;14.10;99.90;;;;;;5019816;28;20068;-60
2023/08/06 03:21:06;;;;;;;19.70;6.45;;;14.10;99.90;;;;;;5017355;28;20462;-59
2023/08/06 03:23:32;;;;;;;13.27;6.43;;;14.10;99.90;;;;;;5018988;28;20753;-60
2023/08/06 03:26:04;;;;;;;7.80;5.75;;;14.10;99.90;;;;;;5017937;28;20371;-59
2023/08/06 03:28:30;;;;;;;14.65;6.82;;;14.10;99.90;;;;;;5017970;28;20033;-60
2023/08/06 03:31:03;;;;;;;17.13;6.82;;;14.20;99.90;;;;;;5015623;28;20033;-60
2023/08/06 03:33:28;;;;;;;24.33;7.13;;;14.10;99.90;;;;;;5019079;28;20028;-60
2023/08/06 03:35:54;;;;;;;25.92;7.90;;;14.20;99.90;;;;;;5018882;28;20096;-59
2023/08/06 03:38:20;;;;;;;19.23;7.50;;;14.20;99.90;;;;;;5019481;28;20494;-59
2023/08/06 03:40:49;;;;;;;8.02;7.22;;;14.20;99.90;;;;;;5013009;28;20047;-60
2023/08/06 03:43:15;;;;;;;11.60;6.80;;;14.30;99.90;;;;;;5018852;28;20528;-61
2023/08/06 03:45:41;;;;;;;14.63;8.35;;;14.30;99.90;;;;;;5015198;28;20041;-59
2023/08/06 03:48:07;;;;;;;20.67;8.43;;;14.30;99.90;;;;;;5003303;28;20084;-58
2023/08/06 03:50:33;;;;;;;16.63;7.65;;;14.20;99.90;;;;;;5018031;28;20045;-59
2023/08/06 03:52:58;;;;;;;11.23;7.10;;;14.20;99.90;;;;;;5019290;28;20030;-59
2023/08/06 03:55:24;;;;;;;44.75;8.65;;;14.10;99.90;;;;;;5018370;28;20025;-60
2023/08/06 03:57:50;;;;;;;8.02;6.70;;;14.20;99.90;;;;;;5017174;28;20084;-59
2023/08/06 04:00:15;;;;;;;13.55;7.32;;;14.20;99.90;;;;;;5017720;28;20038;-60
2023/08/06 04:02:41;;;;;;;17.77;6.75;;;14.20;99.90;;;;;;5019269;28;20066;-59
2023/08/06 04:05:07;;;;;;;10.35;6.18;;;14.20;99.90;;;;;;5016102;28;20068;-58
2023/08/06 04:07:33;;;;;;;11.40;6.53;;;14.10;99.90;;;;;;5018635;28;20033;-59
2023/08/06 04:10:00;;;;;;;25.90;7.93;;;14.20;99.90;;;;;;5017467;28;20497;-59
2023/08/06 04:12:26;;;;;;;15.55;7.80;;;14.20;99.90;;;;;;5016917;28;20056;-58
2023/08/06 04:14:52;;;;;;;17.20;7.45;;;14.20;99.90;;;;;;5017146;28;20045;-60
2023/08/06 04:17:22;;;;;;;15.05;7.57;;;14.20;99.90;;;;;;5018365;28;20024;-61
2023/08/06 04:19:53;;;;;;;24.83;8.02;;;14.10;99.90;;;;;;5016145;28;20042;-59
2023/08/06 04:22:19;;;;;;;21.67;7.93;;;14.10;99.90;;;;;;5015355;28;20123;-60
2023/08/06 04:24:45;;;;;;;23.67;8.05;;;14.10;99.90;;;;;;5019815;28;20038;-60
2023/08/06 04:27:13;;;;;;;38.30;9.50;;;14.10;99.90;;;;;;5016278;28;20069;-60
2023/08/06 04:29:39;;;;;;;13.95;7.35;;;14.10;99.90;;;;;;5016716;28;20486;-59
2023/08/06 04:32:09;;;;;;;14.32;8.07;;;14.20;99.90;;;;;;5019679;28;20076;-58
2023/08/06 04:34:36;;;;;;;18.35;8.82;;;14.20;99.90;;;;;;5017556;28;20075;-60
2023/08/06 04:37:02;;;;;;;17.90;8.77;;;14.20;99.90;;;;;;5016544;28;20068;-60
2023/08/06 04:39:28;;;;;;;28.13;9.43;;;14.10;99.90;;;;;;5016931;28;20045;-58
2023/08/06 04:41:54;;;;;;;23.52;10.18;;;14.10;99.90;;;;;;5015707;28;20092;-60
2023/08/06 04:44:21;;;;;;;28.90;9.70;;;14.10;99.90;;;;;;5013290;28;20030;-60
2023/08/06 04:46:46;;;;;;;24.65;10.43;;;14.10;99.90;;;;;;5021636;28;20172;-60
2023/08/06 04:49:12;;;;;;;22.52;10.07;;;14.10;99.90;;;;;;5013984;28;20022;-61
2023/08/06 04:51:38;;;;;;;34.60;11.07;;;14.10;99.90;;;;;;5007716;28;20033;-59
2023/08/06 04:54:04;;;;;;;31.70;10.48;;;14.10;99.90;;;;;;5016135;28;20473;-58
2023/08/06 04:56:29;;;;;;;59.35;13.85;;;14.10;99.90;;;;;;5019705;28;20018;-60
2023/08/06 04:58:55;;;;;;;30.10;10.60;;;14.20;99.90;;;;;;5017024;28;20033;-61
2023/08/06 05:01:20;;;;;;;15.75;8.90;;;14.20;99.90;;;;;;5019123;28;20026;-61
2023/08/06 05:03:47;;;;;;;54.17;11.32;;;14.30;99.90;;;;;;5012737;28;20026;-60
2023/08/06 05:06:13;;;;;;;17.17;9.43;;;14.30;99.90;;;;;;5014017;28;20030;-61
2023/08/06 05:08:38;;;;;;;8.90;7.15;;;14.40;99.90;;;;;;5019663;28;20092;-60
2023/08/06 05:11:04;;;;;;;11.05;7.85;;;14.40;99.90;;;;;;5017107;28;20485;-60
2023/08/06 05:13:30;;;;;;;15.48;7.22;;;14.40;99.90;;;;;;5017073;28;20965;-61
2023/08/06 05:15:55;;;;;;;13.50;7.07;;;14.40;99.90;;;;;;5018354;28;20030;-60
2023/08/06 05:18:21;;;;;;;8.00;5.47;;;14.40;99.90;;;;;;5013950;28;20064;-61
2023/08/06 05:20:48;;;;;;;12.00;6.40;;;14.40;99.90;;;;;;5016177;28;20062;-58
2023/08/06 05:23:13;;;;;;;15.63;6.72;;;14.40;99.90;;;;;;5017457;28;20099;-59
2023/08/06 05:25:39;;;;;;;24.40;7.82;;;14.30;99.90;;;;;;5016959;28;20382;-60
2023/08/06 05:28:05;;;;;;;8.32;6.50;;;14.30;99.90;;;;;;5019126;28;20065;-62
2023/08/06 05:30:30;;;;;;;13.85;7.18;;;14.30;99.90;;;;;;5015122;28;20041;-60
2023/08/06 05:32:56;;;;;;;11.45;7.13;;;14.30;99.90;;;;;;5012963;28;20030;-61
2023/08/06 05:35:22;;;;;;;7.03;5.93;;;14.30;99.90;;;;;;5019063;28;20022;-59
2023/08/06 05:37:49;;;;;;;10.00;6.30;;;14.40;99.90;;;;;;5020098;28;20505;-60
2023/08/06 05:40:15;;;;;;;7.55;6.78;;;14.40;99.90;;;;;;5019641;28;20050;-61
2023/08/06 05:42:41;;;;;;;21.75;7.70;;;14.40;99.90;;;;;;5016299;28;20030;-61
2023/08/06 05:45:07;;;;;;;18.35;8.43;;;14.30;99.90;;;;;;5015833;28;20045;-59
2023/08/06 05:47:33;;;;;;;11.25;7.85;;;14.40;99.90;;;;;;5018165;28;20041;-60
2023/08/06 05:49:58;;;;;;;9.80;7.50;;;14.40;99.90;;;;;;5015400;28;20030;-59
2023/08/06 05:52:24;;;;;;;11.30;7.82;;;14.40;99.90;;;;;;5015648;28;20025;-60
2023/08/06 05:54:50;;;;;;;7.38;6.68;;;14.50;99.90;;;;;;5016315;28;20026;-60
2023/08/06 05:57:16;;;;;;;14.88;6.50;;;14.50;99.90;;;;;;5016253;28;20038;-59
2023/08/06 05:59:42;;;;;;;17.60;6.78;;;14.50;99.90;;;;;;5019390;28;20034;-59
2023/08/06 06:02:07;;;;;;;17.65;7.22;;;14.50;99.90;;;;;;5020097;28;20040;-60
2023/08/06 06:04:33;;;;;;;8.48;5.85;;;14.50;99.90;;;;;;5018184;28;20387;-60
2023/08/06 06:06:59;;;;;;;10.95;5.75;;;14.60;99.90;;;;;;5026137;28;20034;-61
2023/08/06 06:09:24;;;;;;;5.38;4.88;;;14.60;99.90;;;;;;5017685;28;20140;-61
2023/08/06 06:11:50;;;;;;;5.22;4.82;;;14.60;99.90;;;;;;5019208;28;20021;-63
2023/08/06 06:14:17;;;;;;;7.32;4.10;;;14.60;99.90;;;;;;5018469;28;20163;-60
2023/08/06 06:16:43;;;;;;;5.63;5.13;;;14.60;99.90;;;;;;5019820;28;20030;-62
2023/08/06 06:19:08;;;;;;;4.30;3.90;;;14.60;99.90;;;;;;5018860;28;20052;-58
2023/08/06 06:21:34;;;;;;;11.30;4.60;;;14.70;99.90;;;;;;5020064;28;20033;-59
2023/08/06 06:24:00;;;;;;;4.50;4.10;;;14.60;99.90;;;;;;5020777;28;20041;-60
2023/08/06 06:26:25;;;;;;;4.97;3.95;;;14.70;99.90;;;;;;5021707;28;20064;-61
2023/08/06 06:28:51;;;;;;;5.57;4.18;;;14.60;99.90;;;;;;5017290;28;20199;-61
2023/08/06 06:31:17;;;;;;;9.63;4.55;;;14.60;99.90;;;;;;5019865;28;20034;-58
2023/08/06 06:33:42;;;;;;;4.57;3.97;;;14.60;99.90;;;;;;5015635;28;20616;-59
2023/08/06 06:36:09;;;;;;;7.07;4.97;;;14.60;99.90;;;;;;5018466;28;20040;-59
2023/08/06 06:38:35;;;;;;;4.63;4.20;;;14.70;99.90;;;;;;5021258;28;20025;-60
2023/08/06 06:41:03;;;;;;;5.22;4.65;;;14.70;99.90;;;;;;5019265;28;20045;-62
2023/08/06 06:43:28;;;;;;;4.05;3.67;;;14.80;99.90;;;;;;5019815;28;20029;-60
2023/08/06 06:45:59;;;;;;;4.45;4.05;;;14.80;99.90;;;;;;5014933;28;20048;-61
2023/08/06 06:48:25;;;;;;;;;;;14.80;99.90;;;;;;5023891;28;20089;-59
2023/08/06 06:50:51;;;;;;;4.90;4.47;;;14.90;99.90;;;;;;5019291;28;19921;-61
2023/08/06 06:53:17;;;;;;;4.80;4.20;;;15.00;99.90;;;;;;5019629;28;20021;-61
2023/08/06 06:55:42;;;;;;;4.55;4.15;;;15.10;99.90;;;;;;5017615;28;20041;-60
2023/08/06 06:58:08;;;;;;;5.57;3.55;;;15.10;99.90;;;;;;5019583;28;20033;-59
2023/08/06 07:00:36;;;;;;;8.07;3.80;;;15.20;99.90;;;;;;5017653;28;20371;-60
2023/08/06 07:03:02;;;;;;;3.13;2.83;;;15.20;99.90;;;;;;5016981;28;20510;-60
2023/08/06 07:05:28;;;;;;;5.78;4.22;;;15.20;99.90;;;;;;5019607;28;20021;-60
2023/08/06 07:07:53;;;;;;;16.45;4.25;;;15.20;99.90;;;;;;5015554;28;20552;-58
2023/08/06 07:10:19;;;;;;;6.00;4.28;;;15.30;99.90;;;;;;5016461;28;20033;-61
2023/08/06 07:12:44;;;;;;;5.65;3.42;;;15.40;99.90;;;;;;5018012;28;20057;-61
2023/08/06 07:15:10;;;;;;;4.47;3.65;;;15.50;99.90;;;;;;5017603;28;20033;-60
2023/08/06 07:17:36;;;;;;;3.78;2.80;;;15.70;99.90;;;;;;5019732;28;20505;-60
2023/08/06 07:20:02;;;;;;;3.83;2.72;;;15.80;99.90;;;;;;5020248;28;20540;-59
2023/08/06 07:22:28;;;;;;;5.13;3.50;;;16.10;99.90;;;;;;5021037;28;20564;-60
2023/08/06 07:24:54;;;;;;;10.85;3.15;;;16.30;99.90;;;;;;5019419;28;20045;-58
2023/08/06 07:27:19;;;;;;;6.00;3.03;;;16.50;99.90;;;;;;5017633;28;20028;-60
2023/08/06 07:29:45;;;;;;;2.78;2.58;;;16.60;99.90;;;;;;5015756;28;20036;-61
2023/08/06 07:32:10;;;;;;;4.28;3.35;;;16.50;99.90;;;;;;5020860;28;20114;-59
2023/08/06 07:34:36;;;;;;;3.08;2.60;;;16.30;99.90;;;;;;5025346;28;20513;-60
2023/08/06 07:37:02;;;;;;;3.53;2.90;;;16.20;99.90;;;;;;5015869;28;20026;-61
2023/08/06 07:39:28;;;;;;;8.57;4.07;;;16.10;99.90;;;;;;5018260;28;20029;-60
2023/08/06 07:41:54;;;;;;;4.10;3.25;;;16.00;99.90;;;;;;5017360;28;20028;-60
2023/08/06 07:44:19;;;;;;;7.30;3.17;;;15.90;99.90;;;;;;5019607;28;20022;-59
2023/08/06 07:46:45;;;;;;;7.95;4.30;;;16.00;99.90;;;;;;5018256;28;20029;-60
2023/08/06 07:49:11;;;;;;;4.18;3.78;;;16.20;99.90;;;;;;5017490;28;20034;-60
2023/08/06 07:51:36;;;;;;;4.25;3.30;;;16.50;99.90;;;;;;5019924;28;20049;-59
2023/08/06 07:54:03;;;;;;;6.45;2.33;;;16.50;99.90;;;;;;5016892;28;20025;-60
2023/08/06 07:56:28;;;;;;;5.65;3.33;;;16.50;99.90;;;;;;5019368;28;20021;-60
2023/08/06 07:58:54;;;;;;;2.10;1.90;;;16.70;99.90;;;;;;5016901;28;20022;-60
2023/08/06 08:01:20;;;;;;;7.15;2.13;;;16.60;99.90;;;;;;5018395;28;20033;-60
2023/08/06 08:03:45;;;;;;;2.22;1.85;;;16.40;99.90;;;;;;5020577;28;20044;-58
2023/08/06 08:06:11;;;;;;;3.80;1.83;;;16.50;99.90;;;;;;5018903;28;20645;-59
2023/08/06 08:08:38;;;;;;;6.38;1.80;;;16.40;99.90;;;;;;5016845;28;20033;-58
2023/08/06 08:11:04;;;;;;;4.72;1.95;;;16.40;99.90;;;;;;5021936;28;20038;-59
2023/08/06 08:13:30;;;;;;;3.40;1.55;;;16.50;99.90;;;;;;5017310;28;20026;-59
2023/08/06 08:15:59;;;;;;;2.83;1.42;;;16.50;99.90;;;;;;5014641;28;20020;-61
2023/08/06 08:18:25;;;;;;;3.95;1.70;;;16.40;99.90;;;;;;5015034;28;20510;-61
2023/08/06 08:20:50;;;;;;;3.17;1.55;;;16.40;99.90;;;;;;5016760;28;20107;-59
2023/08/06 08:23:16;;;;;;;2.28;1.48;;;16.50;99.90;;;;;;5018594;28;20036;-61
2023/08/06 08:25:42;;;;;;;3.30;1.40;;;16.60;99.90;;;;;;5017486;28;20045;-60
2023/08/06 08:28:07;;;;;;;3.22;2.10;;;16.70;99.90;;;;;;5017559;28;20401;-59
2023/08/06 08:30:33;;;;;;;1.92;1.40;;;16.60;99.90;;;;;;5017710;28;20553;-61
2023/08/06 08:32:59;;;;;;;1.48;1.10;;;16.60;99.90;;;;;;5017978;28;20044;-60
2023/08/06 08:35:25;;;;;;;2.35;1.67;;;16.60;99.90;;;;;;5024452;28;20486;-59
2023/08/06 08:37:51;;;;;;;2.28;1.30;;;16.60;99.90;;;;;;5016694;28;20085;-59
2023/08/06 08:40:17;;;;;;;4.45;1.30;;;16.60;99.90;;;;;;5014531;28;20037;-59
2023/08/06 08:42:43;;;;;;;2.65;1.10;;;16.60;99.90;;;;;;5014400;28;20036;-60
2023/08/06 08:45:15;;;;;;;1.63;1.15;;;16.50;99.90;;;;;;5012085;28;20033;-60
2023/08/06 08:47:46;;;;;;;1.52;1.20;;;16.40;99.90;;;;;;5014131;28;20554;-58
2023/08/06 08:50:13;;;;;;;5.72;1.00;;;16.50;99.90;;;;;;5016224;28;20041;-61
2023/08/06 08:52:40;;;;;;;8.73;1.73;;;16.60;99.90;;;;;;5016788;28;20068;-59
2023/08/06 08:55:07;;;;;;;15.73;2.15;;;16.70;99.90;;;;;;5016395;28;20030;-58
2023/08/06 08:57:33;;;;;;;3.47;1.30;;;16.90;99.90;;;;;;5016519;28;20581;-58
2023/08/06 08:59:59;;;;;;;2.92;1.02;;;17.00;99.90;;;;;;5016132;28;20140;-59
2023/08/06 09:02:31;;;;;;;4.55;1.35;;;17.20;99.90;;;;;;5016828;28;20736;-58
2023/08/06 09:05:02;;;;;;;2.28;1.00;;;17.40;99.90;;;;;;5016275;28;20033;-61
2023/08/06 09:07:34;;;;;;;;;;;17.60;99.90;;;;;;5017114;28;20383;-60
2023/08/06 09:10:01;;;;;;;;;;;17.70;99.90;;;;;;5017762;28;19963;-59
2023/08/06 09:12:27;;;;;;;2.65;1.00;;;17.70;99.90;;;;;;5016799;28;19924;-60
2023/08/06 09:14:53;;;;;;;4.68;1.13;;;17.60;99.90;;;;;;5017703;28;20029;-60
2023/08/06 09:17:20;;;;;;;2.72;1.73;;;17.30;99.90;;;;;;5016152;28;20021;-61
2023/08/06 09:19:48;;;;;;;1.50;1.15;;;17.10;99.90;;;;;;5017950;28;20125;-59
2023/08/06 09:22:14;;;;;;;1.73;0.93;;;17.00;99.90;;;;;;5018031;28;20030;-59
2023/08/06 09:24:43;;;;;;;4.70;0.90;;;17.30;99.90;;;;;;5017048;28;20724;-59
2023/08/06 09:27:13;;;;;;;1.45;1.00;;;17.70;99.90;;;;;;5018598;28;20030;-59
2023/08/06 09:29:44;;;;;;;1.50;0.93;;;18.00;99.90;;;;;;5018138;28;20017;-59
2023/08/06 09:32:11;;;;;;;;;;;18.20;99.90;;;;;;5015207;28;20038;-59
2023/08/06 09:34:39;;;;;;;0.80;0.80;;;18.30;99.90;;;;;;5021192;28;20453;-59
2023/08/06 09:37:05;;;;;;;1.15;0.90;;;18.40;99.90;;;;;;5021624;28;20498;-60
2023/08/06 09:39:31;;;;;;;1.40;0.73;;;18.20;99.90;;;;;;5019311;28;20033;-60
2023/08/06 09:41:58;;;;;;;1.70;0.85;;;17.90;99.90;;;;;;5020739;28;20037;-61
2023/08/06 09:44:27;;;;;;;0.60;0.50;;;17.50;99.90;;;;;;5021949;28;20389;-59
2023/08/06 09:46:57;;;;;;;0.52;0.52;;;17.20;99.90;;;;;;5020497;28;20037;-60
2023/08/06 09:49:32;;;;;;;1.83;0.70;;;17.00;99.90;;;;;;5020762;28;20096;-60
2023/08/06 09:51:59;;;;;;;3.45;0.60;;;16.90;99.90;;;;;;5015900;28;20036;-59
2023/08/06 09:54:26;;;;;;;1.45;0.60;;;16.80;99.90;;;;;;5018289;28;20113;-60
2023/08/06 09:56:53;;;;;;;1.80;0.60;;;16.80;99.90;;;;;;5018276;28;20033;-60
2023/08/06 09:59:19;;;;;;;1.60;0.60;;;16.90;99.90;;;;;;5022182;28;20014;-58
2023/08/06 10:01:46;;;;;;;0.68;0.50;;;17.10;99.90;;;;;;5021229;28;20049;-60
2023/08/06 10:04:15;;;;;;;1.88;0.60;;;17.50;99.90;;;;;;5020002;28;20026;-61
2023/08/06 10:06:42;;;;;;;0.70;0.50;;;17.90;99.90;;;;;;5019816;28;20057;-62
2023/08/06 10:09:09;;;;;;;0.85;0.50;;;18.30;99.90;;;;;;5020063;28;20549;-58
2023/08/06 10:11:37;;;;;;;1.60;0.60;;;18.40;99.90;;;;;;5019642;28;20131;-60
2023/08/06 10:14:28;;;;;;;2.47;0.50;;;18.50;99.90;;;;;;5019708;28;20396;-59
2023/08/06 10:16:57;;;;;;;0.40;0.40;;;18.70;99.90;;;;;;5019407;28;20120;-60
2023/08/06 10:19:23;;;;;;;0.80;0.40;;;18.70;99.90;;;;;;5019782;28;20074;-59
2023/08/06 10:22:08;;;;;;;0.68;0.50;;;18.70;99.90;;;;;;5019421;28;20026;-60
2023/08/06 10:24:55;;;;;;;1.55;0.43;;;18.70;99.90;;;;;;5020235;28;20127;-59
2023/08/06 10:27:22;;;;;;;0.43;0.40;;;18.70;99.90;;;;;;5020930;28;20034;-59
2023/08/06 10:29:49;;;;;;;4.03;0.50;;;18.70;99.90;;;;;;5018823;28;20029;-60
2023/08/06 10:32:15;;;;;;;2.83;0.50;;;18.60;99.90;;;;;;5017637;28;20049;-62
2023/08/06 10:35:07;;;;;;;0.50;0.30;;;18.60;99.90;;;;;;5019026;28;20025;-62
2023/08/06 10:37:36;;;;;;;1.13;0.40;;;18.60;99.90;;;;;;5017124;28;20026;-58
2023/08/06 10:40:03;;;;;;;1.00;0.65;;;18.80;99.90;;;;;;5018050;28;20497;-61
2023/08/06 10:42:30;;;;;;;0.40;0.40;;;18.90;99.90;;;;;;5017606;28;20034;-60
2023/08/06 10:45:15;;;;;;;0.35;0.30;;;18.90;99.90;;;;;;5016324;28;20387;-58
2023/08/06 10:47:41;;;;;;;0.30;0.30;;;19.00;99.90;;;;;;5019316;28;20072;-59
2023/08/06 10:50:10;;;;;;;0.30;0.30;;;19.20;99.90;;;;;;5017686;28;20482;-60
2023/08/06 10:52:36;;;;;;;1.63;0.40;;;19.40;99.90;;;;;;5022944;28;20043;-59
2023/08/06 10:55:01;;;;;;;0.20;0.20;;;19.60;99.90;;;;;;5019899;28;20059;-60
2023/08/06 10:57:27;;;;;;;1.15;0.30;;;19.80;99.90;;;;;;5017507;28;20171;-60
2023/08/06 10:59:52;;;;;;;0.50;0.22;;;19.80;99.90;;;;;;5018286;28;20087;-58
2023/08/06 11:02:18;;;;;;;0.30;0.30;;;19.50;99.90;;;;;;5017857;28;20018;-59
2023/08/06 11:04:44;;;;;;;1.30;0.32;;;19.10;99.90;;;;;;5019409;28;20029;-61
2023/08/06 11:07:10;;;;;;;0.75;0.45;;;18.70;99.90;;;;;;5022009;28;20112;-59
2023/08/06 11:09:36;;;;;;;1.05;0.40;;;18.10;99.90;;;;;;5019713;28;20049;-58
2023/08/06 11:12:02;;;;;;;0.82;0.40;;;17.90;99.90;;;;;;5018017;28;20026;-60
2023/08/06 11:14:30;;;;;;;1.58;0.50;;;17.80;99.90;;;;;;5019030;28;20021;-61
2023/08/06 11:16:56;;;;;;;1.25;0.40;;;18.00;99.90;;;;;;5002762;28;20261;-59
2023/08/06 11:19:23;;;;;;;0.40;0.40;;;18.10;99.90;;;;;;5021191;28;20080;-59
2023/08/06 11:21:50;;;;;;;1.02;0.40;;;18.30;99.90;;;;;;5018009;28;20037;-59
2023/08/06 11:24:17;;;;;;;1.25;0.38;;;18.60;99.90;;;;;;5016875;28;20664;-61
2023/08/06 11:26:44;;;;;;;0.40;0.40;;;18.90;99.90;;;;;;5022332;28;20029;-59
2023/08/06 11:29:10;;;;;;;1.17;0.40;;;19.20;99.90;;;;;;5019539;28;20050;-59
2023/08/06 11:31:36;;;;;;;0.50;0.32;;;19.50;99.90;;;;;;5017601;28;20813;-60
2023/08/06 11:34:03;;;;;;;0.57;0.30;;;19.70;99.90;;;;;;5018152;28;20029;-59
2023/08/06 11:36:32;;;;;;;0.30;0.30;;;19.90;99.90;;;;;;5018840;28;20037;-58
2023/08/06 11:39:02;;;;;;;0.30;0.30;;;20.00;99.90;;;;;;5020049;28;20489;-60
2023/08/06 11:41:32;;;;;;;0.22;0.22;;;19.90;99.90;;;;;;5019800;28;20029;-60
2023/08/06 11:44:00;;;;;;;0.30;0.30;;;19.80;99.90;;;;;;5018782;28;20034;-60
2023/08/06 11:46:26;;;;;;;1.10;0.30;;;19.90;99.90;;;;;;5019152;28;20029;-58
2023/08/06 11:48:57;;;;;;;0.28;0.28;;;20.00;99.90;;;;;;5019921;28;20499;-60
2023/08/06 11:51:24;;;;;;;0.63;0.20;;;20.10;99.90;;;;;;5019349;28;20053;-58
2023/08/06 11:53:50;;;;;;;1.00;0.30;;;20.30;99.90;;;;;;5018530;28;20026;-59
2023/08/06 11:56:16;;;;;;;0.30;0.30;;;20.60;99.90;;;;;;5016669;28;20045;-60
2023/08/06 11:58:42;;;;;;;0.20;0.20;;;20.90;99.90;;;;;;5016009;28;20084;-59
2023/08/06 12:01:08;;;;;;;0.30;0.30;;;21.10;99.90;;;;;;5014702;28;20038;-60
2023/08/06 12:03:39;;;;;;;0.45;0.30;;;21.00;99.90;;;;;;5018766;28;20045;-60
2023/08/06 12:06:05;;;;;;;0.47;0.22;;;20.90;99.90;;;;;;5018315;28;20041;-60
2023/08/06 12:08:31;;;;;;;0.35;0.30;;;20.60;99.90;;;;;;5017360;28;20038;-60
2023/08/06 12:10:56;;;;;;;0.50;0.30;;;20.50;99.90;;;;;;5015780;28;20453;-60
2023/08/06 12:13:22;;;;;;;0.20;0.20;;;20.60;99.90;;;;;;5017014;28;20194;-59
2023/08/06 12:15:47;;;;;;;0.20;0.20;;;20.60;99.90;;;;;;5017748;28;20091;-58
2023/08/06 12:18:13;;;;;;;0.35;0.30;;;20.60;99.90;;;;;;5020957;28;20022;-60
2023/08/06 12:20:38;;;;;;;1.10;0.30;;;20.30;99.90;;;;;;5017044;28;20482;-60
2023/08/06 12:23:04;;;;;;;0.80;0.28;;;20.30;99.90;;;;;;5017990;28;20030;-60
2023/08/06 12:25:30;;;;;;;0.65;0.22;;;20.40;99.90;;;;;;5016730;28;20037;-58
2023/08/06 12:27:55;;;;;;;0.40;0.40;;;20.30;99.90;;;;;;5019095;28;20036;-59
2023/08/06 12:30:21;;;;;;;0.28;0.28;;;20.30;99.90;;;;;;5016214;28;20024;-62
2023/08/06 12:32:47;;;;;;;2.30;0.25;;;20.30;99.90;;;;;;5017163;28;20042;-59
2023/08/06 12:35:14;;;;;;;0.52;0.20;;;20.10;99.90;;;;;;5013702;28;20596;-59
2023/08/06 12:37:39;;;;;;;0.30;0.30;;;20.10;99.90;;;;;;5017558;28;20120;-58
2023/08/06 12:40:06;;;;;;;0.25;0.22;;;20.40;99.90;;;;;;5017474;28;20129;-59